createdAt,value
2023-02-21T00:00:13.377Z,7.33
2023-02-21T00:02:58.314Z,7.40
2023-02-21T00:05:43.312Z,6.70
2023-02-21T00:08:28.066Z,7.27
2023-02-21T00:11:13.428Z,5.97
2023-02-21T00:13:58.474Z,6.63
2023-02-21T00:16:43.469Z,5.50
2023-02-21T00:19:28.355Z,4.53
2023-02-21T00:22:13.335Z,5.90
2023-02-21T00:24:57.824Z,5.73
2023-02-21T00:27:43.896Z,6.73
2023-02-21T00:30:30.582Z,11.10
2023-02-21T00:33:15.245Z,13.53
2023-02-21T00:36:00.023Z,6.10
2023-02-21T00:38:44.632Z,7.03
2023-02-21T00:41:29.975Z,11.97
2023-02-21T00:44:14.786Z,6.67
2023-02-21T00:46:59.716Z,13.93
2023-02-21T00:49:44.580Z,6.67
2023-02-21T00:52:29.653Z,6.03
2023-02-21T00:55:14.578Z,5.53
2023-02-21T00:57:59.430Z,13.30
2023-02-21T01:00:44.760Z,9.13
2023-02-21T01:03:29.970Z,6.73
2023-02-21T01:06:15.080Z,6.97
2023-02-21T01:09:02.070Z,7.90
2023-02-21T01:11:47.622Z,4.00
2023-02-21T01:14:32.945Z,5.53
2023-02-21T01:17:18.281Z,7.33
2023-02-21T01:20:03.201Z,10.93
2023-02-21T01:22:47.978Z,15.93
2023-02-21T01:25:33.385Z,10.10
2023-02-21T01:28:18.242Z,5.40
2023-02-21T01:31:03.138Z,5.47
2023-02-21T01:33:53.032Z,5.03
2023-02-21T01:36:37.805Z,13.23
2023-02-21T01:39:22.665Z,9.13
2023-02-21T01:42:07.457Z,4.60
2023-02-21T01:45:01.925Z,4.53
2023-02-21T01:47:47.866Z,4.70
2023-02-21T01:50:47.554Z,4.37
2023-02-21T01:53:40.538Z,7.73
2023-02-21T01:56:26.880Z,6.17
2023-02-21T01:59:16.822Z,6.27
2023-02-21T02:02:27.328Z,4.47
2023-02-21T02:05:13.852Z,7.10
2023-02-21T02:07:59.262Z,4.37
2023-02-21T02:10:44.082Z,5.43
2023-02-21T02:16:53.266Z,5.63
2023-02-21T02:25:05.723Z,5.83
2023-02-21T02:32:14.160Z,7.90
2023-02-21T02:35:34.195Z,3.77
2023-02-21T02:38:30.620Z,4.83
2023-02-21T02:41:26.239Z,4.23
2023-02-21T02:44:15.199Z,5.50
2023-02-21T02:46:46.708Z,3.80
2023-02-21T02:49:28.919Z,5.97
2023-02-21T02:52:03.822Z,4.10
2023-02-21T02:54:30.667Z,5.17
2023-02-21T02:56:58.370Z,4.20
2023-02-21T02:59:32.677Z,4.10
2023-02-21T03:06:15.712Z,3.87
2023-02-21T03:09:11.113Z,4.80
2023-02-21T03:11:56.351Z,6.13
2023-02-21T03:14:29.904Z,4.83
2023-02-21T03:17:08.530Z,3.27
2023-02-21T03:19:45.515Z,3.63
2023-02-21T03:22:18.386Z,3.03
2023-02-21T03:24:48.774Z,4.03
2023-02-21T03:27:17.288Z,6.00
2023-02-21T03:29:44.558Z,4.03
2023-02-21T03:32:39.772Z,4.20
2023-02-21T03:35:07.182Z,3.10
2023-02-21T03:37:51.420Z,4.00
2023-02-21T03:40:28.115Z,3.60
2023-02-21T03:42:58.337Z,4.93
2023-02-21T03:45:24.844Z,37.17
2023-02-21T03:47:51.521Z,8.30
2023-02-21T03:50:18.592Z,4.27
2023-02-21T03:52:45.080Z,3.83
2023-02-21T03:55:11.558Z,2.50
2023-02-21T03:57:38.114Z,4.53
2023-02-21T04:00:05.960Z,4.57
2023-02-21T04:02:32.484Z,4.67
2023-02-21T04:04:59.651Z,7.77
2023-02-21T04:07:26.308Z,3.87
2023-02-21T04:09:55.486Z,3.50
2023-02-21T04:12:22.182Z,4.53
2023-02-21T04:14:48.645Z,4.80
2023-02-21T04:17:15.504Z,7.67
2023-02-21T04:19:42.002Z,5.27
2023-02-21T04:22:08.475Z,2.63
2023-02-21T04:24:34.964Z,3.03
2023-02-21T04:27:01.591Z,4.60
2023-02-21T04:29:28.165Z,3.07
2023-02-21T04:31:55.009Z,6.77
2023-02-21T04:34:22.102Z,3.03
2023-02-21T04:36:48.575Z,5.07
2023-02-21T04:39:15.130Z,4.57
2023-02-21T04:41:42.645Z,4.23
2023-02-21T04:44:09.541Z,5.93
2023-02-21T04:46:36.034Z,3.93
2023-02-21T04:49:02.673Z,7.60
2023-02-21T04:51:29.132Z,15.17
2023-02-21T04:53:55.998Z,7.37
2023-02-21T04:56:26.624Z,11.07
2023-02-21T04:58:53.189Z,16.53
2023-02-21T05:01:21.119Z,1.80
2023-02-21T05:03:48.698Z,2.23
2023-02-21T05:06:25.816Z,3.83
2023-02-21T05:08:52.449Z,3.23
2023-02-21T05:11:20.590Z,6.63
2023-02-21T05:13:47.823Z,6.37
2023-02-21T05:16:15.319Z,2.43
2023-02-21T05:18:43.922Z,3.67
2023-02-21T05:21:10.672Z,3.03
2023-02-21T05:23:39.417Z,4.33
2023-02-21T05:26:14.717Z,5.73
2023-02-21T05:28:41.264Z,9.70
2023-02-21T05:31:08.173Z,3.43
2023-02-21T05:33:34.821Z,3.63
2023-02-21T05:36:01.853Z,5.43
2023-02-21T05:38:28.293Z,3.00
2023-02-21T05:40:54.801Z,3.87
2023-02-21T05:43:21.279Z,3.23
2023-02-21T05:45:47.832Z,9.27
2023-02-21T05:48:14.672Z,8.83
2023-02-21T05:50:41.163Z,5.47
2023-02-21T05:53:09.543Z,2.97
2023-02-21T05:55:36.625Z,2.03
2023-02-21T05:58:03.108Z,6.10
2023-02-21T06:00:31.084Z,8.30
2023-02-21T06:02:57.905Z,5.33
2023-02-21T06:05:24.966Z,5.43
2023-02-21T06:07:51.754Z,14.10
2023-02-21T06:10:19.314Z,3.80
2023-02-21T06:12:46.336Z,3.57
2023-02-21T06:15:12.949Z,4.73
2023-02-21T06:17:41.394Z,6.23
2023-02-21T06:20:14.236Z,4.57
2023-02-21T06:22:40.730Z,8.40
2023-02-21T06:25:08.099Z,41.53
2023-02-21T06:27:35.156Z,29.40
2023-02-21T06:30:04.695Z,10.83
2023-02-21T06:32:31.164Z,5.77
2023-02-21T06:34:57.622Z,2.70
2023-02-21T06:37:24.205Z,36.40
2023-02-21T06:39:50.682Z,8.30
2023-02-21T06:42:18.080Z,4.63
2023-02-21T06:44:46.824Z,2.90
2023-02-21T06:47:14.204Z,3.83
2023-02-21T06:49:41.350Z,7.90
2023-02-21T06:52:08.840Z,4.50
2023-02-21T06:54:35.636Z,3.20
2023-02-21T06:57:02.119Z,3.60
2023-02-21T06:59:29.384Z,4.57
2023-02-21T07:01:56.765Z,9.50
2023-02-21T07:04:24.462Z,7.70
2023-02-21T07:06:51.763Z,8.10
2023-02-21T07:09:18.309Z,14.97
2023-02-21T07:11:46.136Z,10.73
2023-02-21T07:14:13.570Z,8.30
2023-02-21T07:16:40.044Z,10.70
2023-02-21T07:19:06.533Z,11.37
2023-02-21T07:21:33.004Z,23.90
2023-02-21T07:23:59.520Z,29.07
2023-02-21T07:26:25.975Z,19.47
2023-02-21T07:28:52.520Z,26.00
2023-02-21T07:31:20.236Z,18.23
2023-02-21T07:33:46.849Z,43.80
2023-02-21T07:36:13.468Z,30.00
2023-02-21T07:38:39.963Z,26.20
2023-02-21T07:41:06.444Z,24.20
2023-02-21T07:43:33.104Z,15.17
2023-02-21T07:46:00.271Z,26.17
2023-02-21T07:48:28.930Z,29.23
2023-02-21T07:50:55.865Z,26.07
2023-02-21T07:53:22.363Z,29.17
2023-02-21T07:55:48.844Z,21.23
2023-02-21T07:58:15.418Z,20.47
2023-02-21T08:00:41.901Z,17.53
2023-02-21T08:03:13.623Z,27.37
2023-02-21T08:05:40.433Z,22.63
2023-02-21T08:08:08.768Z,18.33
2023-02-21T08:10:36.145Z,20.80
2023-02-21T08:13:02.716Z,18.83
2023-02-21T08:15:29.172Z,21.73
2023-02-21T08:17:55.676Z,21.30
2023-02-21T08:20:22.368Z,15.03
2023-02-21T08:22:49.057Z,14.03
2023-02-21T08:25:16.802Z,13.23
2023-02-21T08:27:44.292Z,23.00
2023-02-21T08:30:14.344Z,25.37
2023-02-21T08:32:40.898Z,18.60
2023-02-21T08:35:07.841Z,17.33
2023-02-21T08:37:35.636Z,9.90
2023-02-21T08:40:03.808Z,11.30
2023-02-21T08:42:30.294Z,26.10
2023-02-21T08:44:56.870Z,17.37
2023-02-21T08:47:23.754Z,11.17
2023-02-21T08:49:50.212Z,21.13
2023-02-21T08:52:20.471Z,20.03
2023-02-21T08:54:47.070Z,18.77
2023-02-21T08:57:13.908Z,18.53
2023-02-21T08:59:44.402Z,13.03
2023-02-21T09:02:21.144Z,18.73
2023-02-21T09:04:48.057Z,25.97
2023-02-21T09:07:18.200Z,8.60
2023-02-21T09:09:45.742Z,18.10
2023-02-21T09:12:12.478Z,11.50
2023-02-21T09:14:41.965Z,10.07
2023-02-21T09:17:12.224Z,13.27
2023-02-21T09:19:39.094Z,19.37
2023-02-21T09:22:08.731Z,20.00
2023-02-21T09:24:35.224Z,13.93
2023-02-21T09:27:04.515Z,15.87
2023-02-21T09:29:44.956Z,19.93
2023-02-21T09:32:13.003Z,17.57
2023-02-21T09:34:39.518Z,16.10
2023-02-21T09:37:06.322Z,18.57
2023-02-21T09:39:32.808Z,17.20
2023-02-21T09:41:59.445Z,13.80
2023-02-21T09:44:28.758Z,12.37
2023-02-21T09:47:04.360Z,14.57
2023-02-21T09:49:43.219Z,15.27
2023-02-21T09:52:29.793Z,17.20
2023-02-21T09:55:02.452Z,16.37
2023-02-21T09:57:28.977Z,16.40
2023-02-21T09:59:55.444Z,42.90
2023-02-21T10:02:53.810Z,19.67
2023-02-21T10:06:55.979Z,14.25
2023-02-21T10:17:31.190Z,13.68
2023-02-21T10:20:19.517Z,6.95
2023-02-21T10:22:49.798Z,3.95
2023-02-21T10:25:33.148Z,4.40
2023-02-21T10:28:00.318Z,2.33
2023-02-21T10:30:35.951Z,2.08
2023-02-21T10:33:07.109Z,3.12
2023-02-21T10:35:35.367Z,4.00
2023-02-21T10:38:10.222Z,3.25
2023-02-21T10:40:45.922Z,3.20
2023-02-21T10:48:36.415Z,5.18
2023-02-21T10:51:36.131Z,3.28
2023-02-21T10:54:24.088Z,2.72
2023-02-21T10:56:53.284Z,2.70
2023-02-21T10:59:26.404Z,2.65
2023-02-21T11:01:55.525Z,8.70
2023-02-21T11:04:36.014Z,2.37
2023-02-21T11:07:15.086Z,3.05
2023-02-21T11:09:47.276Z,3.47
2023-02-21T11:12:32.153Z,1.40
2023-02-21T11:15:17.976Z,3.00
2023-02-21T11:17:46.232Z,3.90
2023-02-21T11:20:23.652Z,1.08
2023-02-21T11:22:50.697Z,4.32
2023-02-21T11:25:39.268Z,6.40
2023-02-21T11:28:42.800Z,6.80
2023-02-21T11:31:30.218Z,5.03
2023-02-21T11:34:01.243Z,3.53
2023-02-21T11:36:34.669Z,2.92
2023-02-21T11:39:20.879Z,3.10
2023-02-21T11:41:54.544Z,3.28
2023-02-21T11:45:29.948Z,3.85
2023-02-21T11:48:06.460Z,3.60
2023-02-21T11:50:48.420Z,3.75
2023-02-21T11:53:41.091Z,3.37
2023-02-21T12:00:30.218Z,2.50
2023-02-21T12:06:41.312Z,3.00
2023-02-21T12:10:00.771Z,2.50
2023-02-21T12:12:56.184Z,4.60
2023-02-21T12:18:19.804Z,2.35
2023-02-21T12:24:18.531Z,1.58
2023-02-21T12:31:14.185Z,4.57
2023-02-21T12:34:14.966Z,0.77
2023-02-21T12:38:53.555Z,1.30
2023-02-21T12:42:05.091Z,6.28
2023-02-21T12:48:16.311Z,1.17
2023-02-21T12:50:51.408Z,0.93
2023-02-21T12:53:41.668Z,1.58
2023-02-21T12:56:17.558Z,1.23
2023-02-21T13:00:51.022Z,2.80
2023-02-21T13:05:13.024Z,4.07
2023-02-21T13:08:04.059Z,0.40
2023-02-21T13:11:31.076Z,1.73
2023-02-21T13:13:59.868Z,0.80
2023-02-21T13:16:26.706Z,1.45
2023-02-21T13:19:01.416Z,2.20
2023-02-21T13:24:14.293Z,0.60
2023-02-21T13:29:50.118Z,0.80
2023-02-21T13:32:19.712Z,3.05
2023-02-21T13:34:59.048Z,0.60
2023-02-21T13:37:30.332Z,0.70
2023-02-21T13:40:22.963Z,6.53
2023-02-21T13:43:04.791Z,6.32
2023-02-21T13:45:32.113Z,1.95
2023-02-21T13:48:43.707Z,2.00
2023-02-21T13:51:52.195Z,0.52
2023-02-21T13:54:24.522Z,0.50
2023-02-21T13:56:51.769Z,2.05
2023-02-21T13:59:33.997Z,1.65
2023-02-21T14:02:36.991Z,0.50
2023-02-21T14:05:06.416Z,2.35
2023-02-21T14:07:53.999Z,1.05
2023-02-21T14:11:28.853Z,1.08
2023-02-21T14:14:24.639Z,1.10
2023-02-21T14:17:02.877Z,0.43
2023-02-21T14:19:51.931Z,5.35
2023-02-21T14:22:27.650Z,1.25
2023-02-21T14:25:20.562Z,2.58
2023-02-21T14:27:47.090Z,0.40
2023-02-21T14:30:32.583Z,0.40
2023-02-21T14:33:24.794Z,0.70
2023-02-21T14:36:05.245Z,0.80
2023-02-21T14:38:41.019Z,2.95
2023-02-21T14:42:16.943Z,0.50
2023-02-21T14:47:47.409Z,0.82
2023-02-21T14:56:01.421Z,1.95
2023-02-21T14:59:15.514Z,0.40
2023-02-21T15:03:48.519Z,5.55
2023-02-21T15:06:21.948Z,1.70
2023-02-21T15:08:51.873Z,8.23
2023-02-21T15:11:39.071Z,0.98
2023-02-21T15:15:45.003Z,0.73
2023-02-21T15:20:18.060Z,0.50
2023-02-21T15:22:44.558Z,0.40
2023-02-21T15:25:16.596Z,0.30
2023-02-21T15:28:30.041Z,2.75
2023-02-21T15:31:07.809Z,3.05
2023-02-21T15:33:37.688Z,1.85
2023-02-21T15:36:21.646Z,0.65
2023-02-21T15:39:23.276Z,2.12
2023-02-21T15:41:53.104Z,6.18
2023-02-21T15:44:37.367Z,4.03
2023-02-21T15:47:26.765Z,3.17
2023-02-21T15:51:45.069Z,11.18
2023-02-21T15:54:44.929Z,11.80
2023-02-21T15:57:23.547Z,9.00
2023-02-21T16:00:22.629Z,10.20
2023-02-21T16:02:49.308Z,7.45
2023-02-21T16:05:30.151Z,7.05
2023-02-21T16:08:04.036Z,14.10
2023-02-21T16:10:31.603Z,6.47
2023-02-21T16:13:01.262Z,6.53
2023-02-21T16:15:32.217Z,7.43
2023-02-21T16:18:04.553Z,12.93
2023-02-21T16:20:35.504Z,15.80
2023-02-21T16:25:26.087Z,23.40
2023-02-21T16:27:59.493Z,15.55
2023-02-21T16:30:29.998Z,13.60
2023-02-21T16:33:03.866Z,14.20
2023-02-21T16:35:32.663Z,18.70
2023-02-21T16:38:01.108Z,18.93
2023-02-21T16:40:34.528Z,15.98
2023-02-21T16:43:04.027Z,13.10
2023-02-21T16:45:32.010Z,11.67
2023-02-21T16:48:05.499Z,7.03
2023-02-21T16:50:39.027Z,16.90
2023-02-21T16:53:06.882Z,9.70
2023-02-21T16:55:33.378Z,12.30
2023-02-21T16:58:07.249Z,18.17
2023-02-21T17:00:35.656Z,18.70
2023-02-21T17:03:02.338Z,11.20
2023-02-21T17:05:28.962Z,16.50
2023-02-21T17:07:57.713Z,21.43
2023-02-21T17:10:24.415Z,8.60
2023-02-21T17:12:50.904Z,13.13
2023-02-21T17:15:17.530Z,13.77
2023-02-21T17:17:51.000Z,20.23
2023-02-21T17:20:19.834Z,15.30
2023-02-21T17:22:47.563Z,17.70
2023-02-21T17:25:15.777Z,19.97
2023-02-21T17:27:42.313Z,14.67
2023-02-21T17:30:11.802Z,16.27
2023-02-21T17:32:38.641Z,15.17
2023-02-21T17:35:05.834Z,13.17
2023-02-21T17:37:32.335Z,16.23
2023-02-21T17:39:58.790Z,15.63
2023-02-21T17:42:25.536Z,16.37
2023-02-21T17:44:52.496Z,12.93
2023-02-21T17:47:21.502Z,9.13
2023-02-21T17:49:50.129Z,8.27
2023-02-21T17:52:17.727Z,12.30
2023-02-21T17:54:44.229Z,15.00
2023-02-21T17:57:11.114Z,13.70
2023-02-21T17:59:38.831Z,8.63
2023-02-21T18:02:07.413Z,8.53
2023-02-21T18:04:34.102Z,10.43
2023-02-21T18:07:00.574Z,8.30
2023-02-21T18:09:27.063Z,7.90
2023-02-21T18:11:56.915Z,12.83
2023-02-21T18:14:26.217Z,7.60
2023-02-21T18:16:55.537Z,10.50
2023-02-21T18:19:23.539Z,7.17
2023-02-21T18:21:50.031Z,8.80
2023-02-21T18:24:18.387Z,9.30
2023-02-21T18:26:45.827Z,6.07
2023-02-21T18:29:12.374Z,9.97
2023-02-21T18:31:38.920Z,7.57
2023-02-21T18:34:06.839Z,7.50
2023-02-21T18:36:35.440Z,6.93
2023-02-21T18:39:02.805Z,10.10
2023-02-21T18:41:32.228Z,13.20
2023-02-21T18:43:58.713Z,12.20
2023-02-21T18:46:25.188Z,7.97
2023-02-21T18:48:51.661Z,13.13
2023-02-21T18:51:20.062Z,7.73
2023-02-21T18:53:50.007Z,11.53
2023-02-21T18:56:19.631Z,7.00
2023-02-21T18:58:48.623Z,6.07
2023-02-21T19:01:18.454Z,13.03
2023-02-21T19:03:45.259Z,9.30
2023-02-21T19:06:16.487Z,7.23
2023-02-21T19:08:45.011Z,10.57
2023-02-21T19:11:15.066Z,11.73
2023-02-21T19:13:46.397Z,13.20
2023-02-21T19:16:14.008Z,9.27
2023-02-21T19:18:40.600Z,10.07
2023-02-21T19:21:11.608Z,11.27
2023-02-21T19:23:41.743Z,10.90
2023-02-21T19:26:08.660Z,11.43
2023-02-21T19:28:36.647Z,7.07
2023-02-21T19:31:03.661Z,9.93
2023-02-21T19:33:30.171Z,13.00
2023-02-21T19:35:56.688Z,11.33
2023-02-21T19:38:23.149Z,6.57
2023-02-21T19:40:49.640Z,6.23
2023-02-21T19:43:16.117Z,7.93
2023-02-21T19:45:44.035Z,5.43
2023-02-21T19:48:10.551Z,7.13
2023-02-21T19:50:37.026Z,6.83
2023-02-21T19:53:03.969Z,7.20
2023-02-21T19:55:30.483Z,8.17
2023-02-21T19:57:57.130Z,7.00
2023-02-21T20:00:26.387Z,7.97
2023-02-21T20:02:53.350Z,11.07
2023-02-21T20:05:20.204Z,5.80
2023-02-21T20:07:46.701Z,6.40
2023-02-21T20:10:13.201Z,15.67
2023-02-21T20:12:39.715Z,6.30
2023-02-21T20:15:09.849Z,9.03
2023-02-21T20:17:36.986Z,6.47
2023-02-21T20:20:10.605Z,6.10
2023-02-21T20:22:39.861Z,8.37
2023-02-21T20:25:07.489Z,6.30
2023-02-21T20:27:35.038Z,10.53
2023-02-21T20:30:02.094Z,7.97
2023-02-21T20:32:28.637Z,6.83
2023-02-21T20:34:56.039Z,8.90
2023-02-21T20:37:22.732Z,6.23
2023-02-21T20:39:50.275Z,7.53
2023-02-21T20:42:17.360Z,20.50
2023-02-21T20:44:43.989Z,10.17
2023-02-21T20:47:11.103Z,7.50
2023-02-21T20:49:38.197Z,5.23
2023-02-21T20:52:05.067Z,6.73
2023-02-21T20:54:31.553Z,8.30
2023-02-21T20:56:58.205Z,5.37
2023-02-21T20:59:33.636Z,10.30
2023-02-21T21:02:01.577Z,5.13
2023-02-21T21:04:32.139Z,18.87
2023-02-21T21:07:12.913Z,8.03
2023-02-21T21:09:40.445Z,7.80
2023-02-21T21:12:14.582Z,6.67
2023-02-21T21:14:44.445Z,12.47
2023-02-21T21:17:15.375Z,6.73
2023-02-21T21:19:45.694Z,5.27
2023-02-21T21:22:17.791Z,13.30
2023-02-21T21:24:44.627Z,5.37
2023-02-21T21:27:14.540Z,8.03
2023-02-21T21:29:43.762Z,7.97
2023-02-21T21:32:14.122Z,6.20
2023-02-21T21:34:46.065Z,5.30
2023-02-21T21:37:14.097Z,5.67
2023-02-21T21:39:45.056Z,5.47
2023-02-21T21:42:16.018Z,4.30
2023-02-21T21:44:47.226Z,6.40
2023-02-21T21:47:14.849Z,5.03
2023-02-21T21:49:41.712Z,6.27
2023-02-21T21:52:09.521Z,11.50
2023-02-21T21:54:36.880Z,6.67
2023-02-21T21:57:04.728Z,7.97
2023-02-21T21:59:31.867Z,5.87
2023-02-21T22:01:58.853Z,4.53
2023-02-21T22:04:26.422Z,6.13
2023-02-21T22:06:55.783Z,4.90
2023-02-21T22:09:24.663Z,7.53
2023-02-21T22:11:54.202Z,4.67
2023-02-21T22:14:22.120Z,5.70
2023-02-21T22:16:51.032Z,7.63
2023-02-21T22:19:21.144Z,11.70
2023-02-21T22:21:48.321Z,4.27
2023-02-21T22:24:19.929Z,5.63
2023-02-21T22:26:46.446Z,2.93
2023-02-21T22:29:16.036Z,4.03
2023-02-21T22:31:45.460Z,6.70
2023-02-21T22:34:22.869Z,7.90
2023-02-21T22:36:55.638Z,4.03
2023-02-21T22:39:23.986Z,8.23
2023-02-21T22:41:51.423Z,2.87
2023-02-21T22:44:18.436Z,6.73
2023-02-21T22:46:59.982Z,3.50
2023-02-21T22:49:27.519Z,3.87
2023-02-21T22:51:54.421Z,5.23
2023-02-21T22:54:20.880Z,8.27
2023-02-21T22:56:50.164Z,3.23
2023-02-21T22:59:19.135Z,2.77
2023-02-21T23:01:45.725Z,2.43
2023-02-21T23:04:27.371Z,4.17
2023-02-21T23:06:57.267Z,3.40
2023-02-21T23:09:26.155Z,2.83
2023-02-21T23:11:57.662Z,3.20
2023-02-21T23:14:25.066Z,6.20
2023-02-21T23:16:56.626Z,4.33
2023-02-21T23:19:24.779Z,6.63
2023-02-21T23:21:53.253Z,2.77
2023-02-21T23:24:21.796Z,2.50
2023-02-21T23:26:50.247Z,4.63
2023-02-21T23:29:23.246Z,1.77
2023-02-21T23:31:51.251Z,3.30
2023-02-21T23:34:18.985Z,6.33
2023-02-21T23:36:45.572Z,4.53
2023-02-21T23:39:14.331Z,9.87
2023-02-21T23:41:47.692Z,9.17
2023-02-21T23:44:15.027Z,7.03
2023-02-21T23:46:44.208Z,3.10
2023-02-21T23:49:16.185Z,1.93
2023-02-21T23:51:45.998Z,8.07
2023-02-21T23:54:14.321Z,3.70
2023-02-21T23:56:40.967Z,1.90
2023-02-21T23:59:07.792Z,3.10
